METAR / TAF

Die METAR- und TAF-Liste ist aus technischen Gründen (Verfügbarkeit, Update-Zyklen) nicht für ein Meteo-Briefing gedacht. Benutzen Sie stattdessen skybriefing der Skyguide  oder das TAMSI (MeteoSchweiz-eigene Meteo Selfbriefing-Plattform für Firmen aus der Aviatik; Anfragen über das

Kontaktformular

METAR Schweiz

METAR     LSZH 230650Z 22004KT 9999 FEW010 BKN018 BKN045 07/05
               Q1022 NOSIG=
METAR     LSZH 230720Z 20004KT 160V240 9999 FEW012 BKN018 07/05
               Q1023 NOSIG=
METAR     LSGG 230650Z 24003KT 9999 -RA FEW005 BKN035 07/07 Q1025
               NOSIG=
METAR     LSGG 230720Z 24003KT 9999 FEW005 SCT035 BKN050 08/07
               Q1025 NOSIG=
METAR     LFSB 230730Z 26010KT 9999 BKN041 BKN046 09/07 Q1023 TEMPO
               27010G20KT -SHRA=
METAR     LSZB 230650Z 25006KT 210V290 9999 BKN030 08/03 Q1023
               NOSIG=
METAR     LSZB 230720Z 26008KT 220V300 9999 SCT027 BKN090 08/04
               Q1023 NOSIG=
METAR     LSZA 230650Z 35014KT CAVOK 13/M02 Q1014 NOSIG=
METAR     LSZA 230720Z 35014KT CAVOK 14/M01 Q1015 NOSIG=
METAR     LSZG 230650Z AUTO 22010KT 9999 -DZ BKN008 07/06 Q1023=
METAR     LSZG 230720Z 22010KT 6000 DZ BKN006 BKN009 07/06 Q1023
               NOSIG=
METAR     LSZR 230650Z 26008KT 9999 -RA FEW030 BKN046 08/04 Q1022
               NOSIG RMK D=
METAR     LSZR 230720Z 26008KT 9999 -RA FEW030 BKN043 09/04 Q1022
               NOSIG RMK E=
METAR     LSGS 230650Z 26010KT 9999 -RA SCT025 BKN050 07/04 Q1023=
METAR     LSGS 230720Z 28003KT 250V340 9999 FEW010 SCT025 BKN080
               07/04 Q1023=
METAR     LSGC 230650Z 24004KT 210V280 3000 -RA OVC006 04/04 Q1022=
METAR     LSGC 230720Z 24007KT 190V270 4500 RA OVC007 04/03 Q1022=
METAR     LSZC 230650Z 00000KT 6000 RA BKN010 06/05 Q1023=
METAR     LSZC 230720Z VRB02KT 6000 -RA FEW005 BKN033 06/06 Q1023=
METAR     LSZL 230650Z 05004KT 020V150 9999 FEW080 07/00 Q1016 RMK
               BLU+=
METAR     LSZL 230720Z NIL=
METAR     LSZS 230650Z 30001KT 8000 -SN FEW013 SCT029 BKN042
               M02/M03 Q1017 RMK C=
METAR     LSZS 230720Z VRB03KT 7000 -SN FEW013 SCT036 BKN048
               M02/M03 Q1017 RMK D=
METAR     LSMA 230650Z 03004KT 350V080 9999 RA FEW034 BKN039 OVC048
               07/05 Q1023 RMK BLU=
METAR     LSMA 230720Z NIL=
METAR     LSMD 230650Z 28004KT 230V330 9999 FEW018 BKN023 BKN087
               07/04 Q1022 RMK WHT=
METAR     LSMD 230720Z NIL=
METAR RRA LSME 230650Z VRB02KT 9999 -RA FEW026 OVC030 06/05 Q1023
               RERA RMK BLU=
METAR     LSME 230720Z NIL=
METAR     LSMM 230650Z 25008KT 220V330 9999 -SHRA FEW010 SCT022
               OVC037 06/04 Q1022 RMK BLU=
METAR     LSMM 230720Z NIL=
METAR     LSMP 230650Z 23007KT 9999 FEW017 BKN020 OVC032 07/06
               Q1024 RMK WHT=
METAR     LSMP 230720Z NIL=
METAR     LSMS 230650Z 26010KT 9999 -RA SCT025 BKN050 07/04 Q1023
               RMK BLU=
METAR     LSMS 230720Z 28003KT 250V340 9999 FEW010 SCT025 BKN080
               07/04 Q1023 RMK BLU=
Aktualisiert am Montag, 23. Oktober 2017, 09:41 Uhr

TAF Schweiz

TAF     LSZH 230525Z 2306/2412 25009KT 9999 -DZ SCT010 BKN020
             TX11/2313Z TN06/2307Z TN06/2405Z TEMPO 2306/2409 RA
             PROB40 2320/2401 BKN014=
TAF     LSGG 230525Z 2306/2412 23006KT 9999 FEW020 BKN040
             TX13/2315Z TN06/2306Z TN06/2405Z TEMPO 2306/2315 RA
             BECMG 2316/2318 VRB03KT=
TAF     LFSB 230500Z 2306/2406 26010KT 9999 FEW020 BKN040 TEMPO
             2306/2402 -SHRA PROB40 TEMPO 2306/2309 BKN012 PROB40
             TEMPO 2310/2316 28015G25KT 4000 SHRA BECMG 2321/2324
             16005KT PROB30 TEMPO 2402/2406 BKN012=
TAF     LSGS 230525Z 2306/2315 25005KT 9999 SCT030 BKN070 TEMPO
             2306/2313 RA=
TAF     LSZA 230525Z 2306/2315 35011KT CAVOK TEMPO 2306/2312
             VRB03KT TEMPO 2309/2315 36015G33KT=
TAF     LSZB 230525Z 2306/2315 26007KT 9999 SCT010 BKN025 TEMPO
             2306/2315 4500 SHRA=
TAF     LSZG 230525Z 2306/2315 22009KT 9999 -RA BKN011 PROB30 TEMPO
             2306/2310 4000 SHRA BKN008 BKN030TCU TEMPO 2306/2315
             NSC=
TAF AAA LSZL 230722Z 2307/2315 05004KT 9999 FEW080 TEMPO 2309/2315
             09015G25KT CAVOK PROB40 TEMPO 2309/2315 09025G35KT=
TAF     LSZL 230525Z 2306/2315 VRB03KT CAVOK TEMPO 2309/2315
             09015G25KT PROB40 TEMPO 2309/2315 09025G35KT=
TAF     LSZR 230525Z 2306/2315 26010KT 9999 FEW010 SCT020 BKN040
             TEMPO 2306/2315 RA PROB30 TEMPO 2306/2312 SCT020TCU=
TAF     LSGC 230525Z 2306/2315 24007KT 9999 -RA BKN004 OVC009=
TAF     LSZC 230525Z 2306/2315 VRB03KT 9999 -RA BKN045 PROB30 TEMPO
             2306/2310 4000 SHRA BKN012 BKN040TCU TEMPO 2306/2315
             NSC=
TAF     LSZS 230525Z 2306/2315 VRB03KT 9999 -SN BKN040 TX04/2314Z
             TEMPO 2306/2315 34015G25KT PROB40 2306/2315 2000 SHSN
             BKN012=
TAF     LSMA 221625Z 2217/2323 20008KT 9999 BKN050 TEMPO 2217/2323
             4500 SHRA PROB40 TEMPO 2217/2224 23015G30KT SCT025TCU
             PROB30 TEMPO 2310/2318 28015G25KT SCT025TCU=
TAF     LSMD 221625Z 2217/2323 30005KT 9999 FEW030 BKN038 BKN045
             TEMPO 2217/2321 4500 SHRA TEMPO 2217/2222 29015G30KT
             SCT030TCU PROB30 TEMPO 2217/2218 4000 SHGS PROB40
             TEMPO 2310/2321 29012G27KT SCT025TCU=
TAF     LSME 221625Z 2217/2323 25005KT 9999 FEW017 BKN055 TEMPO
             2217/2323 4500 SHRA PROB40 TEMPO 2217/2224 28015G30KT
             SCT025TCU PROB30 TEMPO 2310/2318 28015G25KT
             SCT025TCU=
TAF     LSMM 221625Z 2217/2323 30012KT 9999 FEW019 BKN055 BKN065
             TEMPO 2217/2323 4500 SHRA PROB40 TEMPO 2217/2310
             30018G35KT SCT025TCU PROB30 TEMPO 2310/2321
             30015G25KT SCT025TCU=
TAF     LSMP 230525Z 2306/2412 23010KT 9999 BKN030 BKN040 PROB30
             TEMPO 2306/2316 SHRA BECMG 2318/2320 VRB03KT=
Aktualisiert am Montag, 23. Oktober 2017, 09:36 Uhr